WRI weather

Mc Guire Air Force Base
Wrightstown, New Jersey, United States

Public forecast

Using degrees Fahrenheit for public forecast. Weather courtesy of forecast.io.

METAR (pilot weather report)

Retrieved 2019/07/24 07:56 UTC (19 minutes ago):

KWRI 240756Z AUTO 35003KT 10SM CLR 19/18 A2988 RMK AO2 SLP117 T01890184 $

TAF (pilot weather forecast)

Retrieved 2019/07/24 02:18 UTC (6 hours ago):

TAF KWRI 240200Z 2402/2508 06006KT 8000 -SHRA SCT025 OVC055 QNH2980INS TEMPO 2402/2405 SCT007 OVC015 BECMG 2405/2406 02006KT 9999 NSW SCT025 OVC050 QNH2982INS BECMG 2408/2409 01006KT 9999 BKN050 BKN100 QNH2990INS BECMG 2412/2413 03010G15KT 9999 FEW050 SCT250 QNH2994INS BECMG 2422/2423 12005KT 9999 FEW250 QNH2996INS TX27/2420Z TN18/2410Z